EW2964 Weather Reports


Display with metric or nautical units.
time (UTC)temp
F
wind
direction
speed
MPH
gust
MPH
rain 1hr
in
rain 24hr
in
rain mn
in
humidity
%
barometer
mb
20200403075441 42 346 2.0 15.0 0.01 0.08 0.07 90 999.1
20200403073925 42 0 4.0 14.0 0.01 0.08 0.07 89 999.1
20200403072422 42 17 3.0 13.0 0.01 0.08 0.07 89 999.1
20200403070915 43 337 3.0 13.0 0.00 0.07 0.06 88 999.2
20200403065418 43 335 4.0 19.0 0.01 0.07 0.06 87 999.4
20200403063901 43 0 4.0 13.0 0.01 0.07 0.06 87 999.4
20200403062402 43 325 2.0 19.0 0.01 0.07 0.06 88 999.5
20200403060901 43 5 3.0 15.0 0.03 0.07 0.06 88 999.5
20200403055403 43 349 3.0 14.0 0.03 0.06 0.05 89 999.8
20200403053843 43 321 2.0 15.0 0.04 0.06 0.05 89 999.9
20200403052342 43 355 4.0 22.0 0.05 0.06 0.05 88 1000.1
20200403050836 43 343 3.0 18.0 0.03 0.04 0.04 87 1000.1
20200403045332 44 344 3.0 23.0 0.02 0.03 0.02 86 1000.2
20200403043834 44 5 7.0 26.0 0.02 0.02 0.01 84 1000.3
20200403042334 45 319 5.0 18.0 0.01 0.01 0.00 81 1000.3
20200403040836 45 311 5.0 16.0 0.01 0.01 0.00 79 1000.3
20200403035326 45 333 6.0 20.0 0.01 0.01 0.01 80 1000.5
20200403033816 46 351 8.0 21.0 0.00 0.00 0.00 79 1000.6
20200403032302 46 342 5.0 21.0 0.00 0.00 0.00 78 1000.7
20200403030803 46 340 6.0 20.0 0.00 0.00 0.00 77 1000.8
20200403025244 47 9 9.0 25.0 0.00 0.00 0.00 74 1001.2
20200403023745 48 15 7.0 23.0 0.00 0.00 0.00 71 1001.1
20200403022246 48 25 9.0 24.0 0.00 0.00 0.00 69 1001.1
20200403020742 49 355 8.0 21.0 0.00 0.00 0.00 67 1001.2
20200403015221 50 5 6.0 19.0 0.00 0.00 0.00 65 1001.3
20200403013726 51 355 6.0 20.0 0.00 0.00 0.00 62 1001.2
20200403012151 51 0 3.0 21.0 0.00 0.00 0.00 61 1001.1
20200403010639 52 321 6.0 18.0 0.00 0.00 0.00 59 1001.1
20200403005132 52 14 3.0 16.0 0.00 0.00 0.00 55 1001.0
20200403003637 53 306 3.0 16.0 0.00 0.00 0.00 54 1000.8
20200403002107 53 326 5.0 16.0 0.00 0.00 0.00 53 1000.6
20200403000612 53 314 3.0 24.0 0.00 0.00 0.00 53 1000.5
20200402235102 53 344 4.0 22.0 0.00 0.00 0.00 54 1000.4
20200402233559 53 308 6.0 22.0 0.00 0.00 0.00 52 1000.2
20200402232102 53 327 5.0 24.0 0.00 0.00 0.00 51 1000.0
20200402230551 53 321 6.0 23.0 0.00 0.00 0.00 51 999.9
20200402225051 54 336 4.0 18.0 0.00 0.00 0.00 53 1000.0
20200402223536 54 344 4.0 19.0 0.00 0.00 0.00 52 999.8
20200402222034 54 333 6.0 22.0 0.00 0.00 0.00 51 999.8
20200402220532 54 316 5.0 21.0 0.00 0.00 0.00 52 999.8
20200402215033 55 0 5.0 19.0 0.00 0.00 0.00 51 999.7
20200402213530 55 330 5.0 20.0 0.00 0.00 0.00 51 999.6
20200402212027 55 330 6.0 16.0 0.00 0.00 0.00 51 999.5
20200402210526 54 343 5.0 20.0 0.00 0.00 0.00 52 999.5
20200402205028 54 343 3.0 12.0 0.00 0.00 0.00 52 999.5
20200402203530 55 338 4.0 12.0 0.00 0.00 0.00 52 999.5
20200402202010 55 330 5.0 18.0 0.00 0.00 0.00 51 999.5
20200402200452 55 28 5.0 16.0 0.00 0.00 0.00 51 999.5
20200402194951 55 347 6.0 18.0 0.00 0.00 0.00 53 999.6
20200402193452 55 344 7.0 18.0 0.00 0.00 0.00 53 999.8
20200402191951 56 325 4.0 21.0 0.00 0.00 0.00 49 999.8
20200402190454 55 24 7.0 23.0 0.00 0.00 0.00 52 999.8
20200402184931 56 11 4.0 15.0 0.00 0.00 0.00 52 1000.0
20200402183430 55 333 7.0 19.0 0.00 0.00 0.00 52 1000.1
20200402181930 55 328 7.0 21.0 0.00 0.00 0.00 52 1000.2
20200402180422 54 346 7.0 24.0 0.00 0.00 0.00 53 1000.4
20200402174923 54 9 6.0 19.0 0.00 0.00 0.00 53 1000.7
20200402173421 53 22 5.0 19.0 0.00 0.00 0.00 54 1000.9
20200402171917 53 305 5.0 18.0 0.00 0.00 0.00 54 1001.2
20200402170407 53 346 8.0 20.0 0.00 0.00 0.00 55 1001.3
20200402164902 52 34 6.0 21.0 0.00 0.00 0.00 56 1001.4
20200402163404 51 351 5.0 18.0 0.00 0.00 0.00 56 1001.7
20200402161902 51 5 5.0 19.0 0.00 0.00 0.00 57 1001.8
20200402160402 51 5 4.0 18.0 0.00 0.00 0.00 58 1002.0
20200402154836 50 355 5.0 20.0 0.00 0.00 0.00 59 1002.1
20200402153336 50 5 4.0 20.0 0.00 0.00 0.00 60 1002.4
20200402151834 49 319 5.0 19.0 0.00 0.00 0.00 59 1002.5
20200402150333 49 26 4.0 18.0 0.00 0.00 0.00 60 1002.8
20200402144839 48 302 7.0 23.0 0.00 0.00 0.00 62 1002.9
20200402143320 47 0 5.0 21.0 0.00 0.00 0.00 63 1003.1
20200402141822 46 5 7.0 22.0 0.00 0.00 0.00 64 1003.2
20200402140319 46 32 4.0 15.0 0.00 0.00 0.00 64 1003.4
20200402134819 46 337 6.0 19.0 0.00 0.00 0.00 64 1003.5
20200402133319 45 355 5.0 20.0 0.00 0.00 0.00 65 1003.6
20200402131821 45 333 4.0 22.0 0.00 0.00 0.00 66 1003.7
20200402130317 44 293 5.0 16.0 0.00 0.00 0.00 67 1003.9
20200402124818 43 332 7.0 20.0 0.00 0.00 0.00 67 1004.0
20200402123311 43 355 3.0 13.0 0.00 0.00 0.00 68 1004.1
20200402121758 42 355 3.0 14.0 0.00 0.00 0.00 69 1004.3
20200402120256 42 321 4.0 21.0 0.00 0.00 0.00 70 1004.3
20200402114758 41 5 6.0 18.0 0.00 0.00 0.00 71 1004.5
20200402113231 40 62 4.0 14.0 0.00 0.00 0.00 73 1004.4
20200402111731 40 329 3.0 9.0 0.00 0.00 0.00 75 1004.4
20200402110204 39 339 4.0 13.0 0.00 0.00 0.00 76 1004.3
20200402104706 39 355 3.0 9.0 0.00 0.00 0.00 76 1004.4
20200402103159 39 20 2.0 9.0 0.00 0.00 0.00 77 1004.5
20200402101657 39 33 2.0 10.0 0.00 0.00 0.00 76 1004.5
20200402100157 39 317 2.0 9.0 0.00 0.00 0.00 76 1004.6
20200402094657 39 300 3.0 11.0 0.00 0.00 0.00 77 1004.6
20200402093157 39 334 2.0 15.0 0.00 0.00 0.00 77 1004.5
20200402091700 39 343 3.0 9.0 0.00 0.00 0.00 76 1004.6
20200402090152 39 32 3.0 10.0 0.00 0.00 0.00 76 1004.5
20200402084637 39 331 2.0 10.0 0.00 0.00 0.00 76 1004.4
20200402083140 40 5 2.0 11.0 0.00 0.00 0.00 76 1004.5
20200402081617 40 350 4.0 12.0 0.00 0.00 0.00 76 1004.6